Time;durP1;ratioP1;P1;durP2;ratioP2;P2;SDS_P1;SDS_P2;PMS_P1;PMS_P2;Temp;Humidity;BMP_temperature;BMP_pressure;BME280_temperature;BME280_humidity;BME280_pressure;Samples;Min_cycle;Max_cycle;Signal;HPM_P1;HPM_P2
2022/02/06 00:01:20;;;;;;;7.90;2.37;;;8.40;84.50;;;;;;5035430;28;20181;-91
2022/02/06 00:03:46;;;;;;;7.17;2.30;;;8.30;85.10;;;;;;5029273;28;20177;-90
2022/02/06 00:06:13;;;;;;;7.83;2.53;;;8.30;87.70;;;;;;5041800;28;20173;-91
2022/02/06 00:08:40;;;;;;;5.83;2.60;;;8.30;88.80;;;;;;5024018;28;20196;-91
2022/02/06 00:11:06;;;;;;;8.67;2.70;;;8.30;89.30;;;;;;5028679;28;20185;-90
2022/02/06 00:13:35;;;;;;;11.17;2.57;;;8.40;87.50;;;;;;5032436;28;20208;-89
2022/02/06 00:16:01;;;;;;;7.00;1.80;;;8.30;86.50;;;;;;5044109;28;20212;-89
2022/02/06 00:18:27;;;;;;;6.77;2.13;;;8.30;84.70;;;;;;5043939;28;20253;-91
2022/02/06 00:21:00;;;;;;;8.07;2.37;;;8.30;81.40;;;;;;5044244;28;20161;-90
2022/02/06 00:23:30;;;;;;;6.20;1.77;;;8.30;81.10;;;;;;5042627;28;20166;-92
2022/02/06 00:32:03;;;;;;;6.67;2.53;;;8.20;82.20;;;;;;5042037;28;20169;-90
2022/02/06 00:40:16;;;;;;;8.67;3.40;;;8.30;79.20;;;;;;5039656;28;20236;-91
2022/02/06 00:42:44;;;;;;;12.07;3.23;;;8.30;77.10;;;;;;5024357;28;20268;-89
2022/02/06 00:45:09;;;;;;;5.07;2.27;;;8.30;78.20;;;;;;5023449;28;20224;-90
2022/02/06 00:47:37;;;;;;;8.43;2.30;;;8.30;78.40;;;;;;5024986;28;20266;-89
2022/02/06 00:50:03;;;;;;;10.87;2.23;;;8.30;76.90;;;;;;5026244;28;20544;-90
2022/02/06 00:52:37;;;;;;;8.67;2.53;;;8.30;77.30;;;;;;5027099;28;20174;-89
2022/02/06 00:55:20;;;;;;;5.70;2.83;;;8.30;76.50;;;;;;5033674;28;20194;-88
2022/02/06 00:57:47;;;;;;;9.73;2.23;;;8.40;76.30;;;;;;5069269;28;20169;-89
2022/02/06 01:00:13;;;;;;;8.57;2.60;;;8.40;74.30;;;;;;5048584;28;20186;-89
2022/02/06 01:02:39;;;;;;;9.03;3.13;;;8.40;73.70;;;;;;5025364;28;20174;-90
2022/02/06 01:05:05;;;;;;;6.03;2.30;;;8.40;73.70;;;;;;5024997;28;20201;-90
2022/02/06 01:07:31;;;;;;;4.80;1.90;;;8.50;72.10;;;;;;5024465;28;20247;-91
2022/02/06 01:09:57;;;;;;;8.30;2.00;;;8.50;70.90;;;;;;5040828;28;20642;-89
2022/02/06 01:12:26;;;;;;;5.30;2.23;;;8.50;70.80;;;;;;5027282;28;20177;-91
2022/02/06 01:15:07;;;;;;;5.50;2.57;;;8.50;72.80;;;;;;5045708;28;20225;-89
2022/02/06 01:17:39;;;;;;;8.23;2.33;;;8.50;69.50;;;;;;5038614;28;20158;-89
2022/02/06 01:20:14;;;;;;;5.77;2.30;;;8.60;69.90;;;;;;5037979;28;20190;-90
2022/02/06 01:22:49;;;;;;;9.70;2.63;;;8.50;71.10;;;;;;5040661;28;20188;-88
2022/02/06 01:25:26;;;;;;;6.83;2.37;;;8.40;72.60;;;;;;5037379;28;20272;-91
2022/02/06 01:28:01;;;;;;;7.87;1.93;;;8.50;71.70;;;;;;5025790;28;20178;-91
2022/02/06 01:30:54;;;;;;;8.10;2.50;;;8.40;72.30;;;;;;5028023;28;20215;-89
2022/02/06 01:33:31;;;;;;;6.33;2.13;;;8.50;72.10;;;;;;5062379;28;20179;-89
2022/02/06 01:38:31;;;;;;;6.10;2.50;;;8.50;71.80;;;;;;5059139;28;20164;-88
2022/02/06 01:41:03;;;;;;;6.97;2.00;;;8.50;71.40;;;;;;5042269;28;20182;-89
2022/02/06 01:43:40;;;;;;;9.73;2.40;;;8.40;72.40;;;;;;5039738;28;20264;-90
2022/02/06 02:06:14;;;;;;;10.73;2.53;;;8.60;79.40;;;;;;5041014;28;20247;-89
2022/02/06 02:11:43;;;;;;;6.73;2.37;;;8.40;85.60;;;;;;5054717;28;20622;-88
2022/02/06 02:46:31;;;;;;;8.67;2.30;;;8.30;92.70;;;;;;5058746;28;20150;-89
2022/02/06 02:48:59;;;;;;;6.17;2.03;;;8.40;92.20;;;;;;5040911;28;20157;-87
2022/02/06 02:51:35;;;;;;;9.10;2.00;;;8.40;91.20;;;;;;5040343;28;20170;-89
2022/02/06 02:54:10;;;;;;;7.43;2.00;;;8.50;91.00;;;;;;5042025;28;20154;-88
2022/02/06 02:56:46;;;;;;;8.43;2.50;;;8.50;90.50;;;;;;5040650;28;20193;-89
2022/02/06 03:01:56;;;;;;;5.10;1.90;;;8.50;90.30;;;;;;5054739;28;20162;-88
2022/02/06 03:04:26;;;;;;;6.90;2.30;;;8.60;90.60;;;;;;5058455;28;20182;-89
2022/02/06 03:06:52;;;;;;;6.23;2.10;;;8.50;91.00;;;;;;5041736;28;20164;-90
2022/02/06 03:09:23;;;;;;;9.43;2.37;;;8.50;91.50;;;;;;5041831;28;20161;-88
2022/02/06 03:11:50;;;;;;;8.73;2.47;;;8.40;92.80;;;;;;5041398;28;20284;-88
2022/02/06 03:14:26;;;;;;;9.30;2.50;;;8.40;93.10;;;;;;5057533;28;20177;-89
2022/02/06 03:17:37;;;;;;;10.93;2.33;;;8.30;93.80;;;;;;5057752;28;20519;-89
2022/02/06 03:20:10;;;;;;;9.57;2.43;;;8.40;94.50;;;;;;5040726;28;20179;-90
2022/02/06 03:22:50;;;;;;;8.90;2.63;;;8.30;95.40;;;;;;5057636;28;20162;-90
2022/02/06 03:25:20;;;;;;;7.63;3.27;;;8.20;96.50;;;;;;5055674;28;20190;-90
2022/02/06 03:27:48;;;;;;;10.40;3.07;;;8.20;97.10;;;;;;5039892;28;20197;-89
2022/02/06 03:30:15;;;;;;;5.07;2.73;;;8.20;97.20;;;;;;5041417;28;20217;-90
2022/02/06 03:32:44;;;;;;;5.83;2.47;;;8.20;97.10;;;;;;5041285;28;20181;-89
2022/02/06 03:35:13;;;;;;;11.43;2.67;;;8.20;97.30;;;;;;5028251;28;20201;-90
2022/02/06 03:37:45;;;;;;;10.37;2.87;;;8.20;96.90;;;;;;5025609;28;20192;-90
2022/02/06 03:40:20;;;;;;;8.00;2.97;;;8.20;96.80;;;;;;5030948;28;20173;-89
2022/02/06 03:43:12;;;;;;;7.90;2.40;;;8.20;96.80;;;;;;5035581;28;20172;-89
2022/02/06 03:45:56;;;;;;;8.67;3.40;;;8.20;97.10;;;;;;5040256;28;20154;-90
2022/02/06 03:48:31;;;;;;;11.10;2.60;;;8.10;97.60;;;;;;5045358;28;20208;-89
2022/02/06 03:51:04;;;;;;;5.20;2.10;;;8.10;98.20;;;;;;5044993;28;20233;-88
2022/02/06 03:53:47;;;;;;;10.40;2.90;;;8.10;98.60;;;;;;5044874;28;20176;-89
2022/02/06 03:56:33;;;;;;;8.07;2.63;;;8.10;98.90;;;;;;5041508;28;20224;-88
2022/02/06 04:02:22;;;;;;;9.03;2.80;;;8.20;99.70;;;;;;5056700;28;20152;-90
2022/02/06 04:04:47;;;;;;;10.33;3.67;;;8.10;99.90;;;;;;5034594;28;20193;-89
2022/02/06 04:07:14;;;;;;;7.33;3.47;;;8.00;99.90;;;;;;5026067;28;20169;-88
2022/02/06 04:09:47;;;;;;;9.00;3.10;;;7.90;99.90;;;;;;5028012;28;20268;-89
2022/02/06 04:12:18;;;;;;;10.37;2.60;;;8.00;99.90;;;;;;5059966;28;20193;-88
2022/02/06 04:14:58;;;;;;;6.70;2.47;;;8.10;99.90;;;;;;5028825;28;20207;-90
2022/02/06 04:17:36;;;;;;;6.97;2.60;;;7.90;99.90;;;;;;5039959;28;20177;-89
2022/02/06 04:20:11;;;;;;;6.67;2.90;;;7.90;99.90;;;;;;5033620;28;20174;-89
2022/02/06 04:22:42;;;;;;;7.67;2.63;;;7.90;99.90;;;;;;5054816;28;20185;-87
2022/02/06 04:25:23;;;;;;;7.87;2.80;;;7.90;99.90;;;;;;5031947;28;20228;-89
2022/02/06 04:27:50;;;;;;;9.33;2.80;;;7.90;99.90;;;;;;5035053;28;20622;-88
2022/02/06 04:30:17;;;;;;;7.37;2.90;;;7.90;99.90;;;;;;5027135;28;20193;-90
2022/02/06 04:32:42;;;;;;;8.83;2.80;;;7.90;99.90;;;;;;5034661;28;20213;-89
2022/02/06 04:35:15;;;;;;;11.17;3.40;;;7.90;99.90;;;;;;5032110;28;20263;-88
2022/02/06 04:37:56;;;;;;;10.00;2.83;;;7.90;99.90;;;;;;5031704;28;20169;-89
2022/02/06 04:43:12;;;;;;;8.13;3.03;;;8.10;99.90;;;;;;5044006;28;20154;-89
2022/02/06 05:13:24;;;;;;;6.77;2.97;;;8.00;99.90;;;;;;5041086;28;20193;-88
2022/02/06 05:28:35;;;;;;;7.77;3.40;;;7.90;99.90;;;;;;5041126;28;20253;-88
2022/02/06 05:31:06;;;;;;;7.70;3.00;;;7.90;99.90;;;;;;5026157;28;20200;-87
2022/02/06 05:33:32;;;;;;;6.17;2.63;;;8.00;99.90;;;;;;5026002;28;20201;-87
2022/02/06 05:35:58;;;;;;;13.70;3.47;;;7.90;99.90;;;;;;5032860;28;20583;-88
2022/02/06 05:38:23;;;;;;;10.03;2.57;;;8.00;99.90;;;;;;5042327;28;20172;-88
2022/02/06 05:40:49;;;;;;;11.40;3.20;;;8.10;99.90;;;;;;5042331;28;20196;-89
2022/02/06 05:43:18;;;;;;;9.97;2.60;;;8.10;99.90;;;;;;5040072;28;20182;-89
2022/02/06 05:49:11;;;;;;;6.30;2.73;;;8.10;99.90;;;;;;5046858;28;20197;-88
2022/02/06 05:51:41;;;;;;;8.30;2.97;;;8.10;99.90;;;;;;5024464;28;20177;-89
2022/02/06 05:54:10;;;;;;;8.03;3.03;;;8.10;99.90;;;;;;5043851;28;20174;-89
2022/02/06 05:56:36;;;;;;;9.57;2.90;;;8.10;99.90;;;;;;5032833;28;20213;-89
2022/02/06 05:59:06;;;;;;;7.63;2.70;;;8.20;99.90;;;;;;5042252;28;20204;-88
2022/02/06 06:01:33;;;;;;;8.73;2.90;;;8.10;99.90;;;;;;5059468;28;20182;-88
2022/02/06 06:04:03;;;;;;;8.17;3.40;;;8.20;99.90;;;;;;5040421;28;20184;-89
2022/02/06 06:06:29;;;;;;;11.10;2.70;;;8.10;99.90;;;;;;5024276;28;20177;-88
2022/02/06 06:08:58;;;;;;;9.47;2.90;;;8.10;99.90;;;;;;5023399;28;20177;-89
2022/02/06 06:11:24;;;;;;;7.47;2.60;;;8.00;99.90;;;;;;5028312;28;20205;-88
2022/02/06 06:13:51;;;;;;;7.40;3.17;;;8.10;99.90;;;;;;5032119;28;20185;-89
2022/02/06 06:16:17;;;;;;;6.17;2.80;;;8.20;99.90;;;;;;5029418;28;20284;-89
2022/02/06 06:18:42;;;;;;;8.17;2.70;;;8.20;99.90;;;;;;5040057;28;20236;-89
2022/02/06 06:21:11;;;;;;;10.20;3.40;;;8.10;99.90;;;;;;5024655;28;20173;-89
2022/02/06 06:23:42;;;;;;;7.43;2.80;;;8.10;99.90;;;;;;5024845;28;20182;-89
2022/02/06 06:26:16;;;;;;;8.30;3.23;;;8.20;99.90;;;;;;5030097;28;20181;-89
2022/02/06 06:28:44;;;;;;;6.30;2.70;;;8.10;99.90;;;;;;5047030;28;20166;-89
2022/02/06 06:31:16;;;;;;;7.47;3.53;;;8.20;99.90;;;;;;5026628;28;20166;-89
2022/02/06 06:33:45;;;;;;;9.83;2.77;;;8.20;99.90;;;;;;5049646;28;20186;-90
2022/02/06 06:36:12;;;;;;;4.73;2.50;;;8.20;99.90;;;;;;5038517;28;20597;-88
2022/02/06 06:38:38;;;;;;;5.80;2.33;;;8.10;99.90;;;;;;5030162;28;20235;-89
2022/02/06 06:41:05;;;;;;;7.40;3.07;;;8.10;99.90;;;;;;5022767;28;20161;-89
2022/02/06 06:43:32;;;;;;;5.87;2.70;;;8.10;99.90;;;;;;5025667;28;20249;-87
2022/02/06 06:45:59;;;;;;;6.53;2.63;;;8.10;99.90;;;;;;5060017;28;20174;-88
2022/02/06 06:48:24;;;;;;;4.33;2.20;;;8.20;99.90;;;;;;5042208;28;20198;-88
2022/02/06 06:50:50;;;;;;;7.57;2.77;;;8.20;99.90;;;;;;5027127;28;20284;-88
2022/02/06 06:53:16;;;;;;;5.33;2.53;;;8.20;99.90;;;;;;5028185;28;20189;-87
2022/02/06 06:55:44;;;;;;;7.07;2.43;;;8.20;99.90;;;;;;5037179;28;20213;-89
2022/02/06 06:58:18;;;;;;;6.57;2.60;;;8.20;99.90;;;;;;5041504;28;20154;-89
2022/02/06 07:00:56;;;;;;;5.03;2.43;;;8.20;99.90;;;;;;5056837;28;20185;-88
2022/02/06 07:03:25;;;;;;;7.50;3.00;;;8.20;99.90;;;;;;5055817;28;20185;-87
2022/02/06 07:05:59;;;;;;;6.47;2.53;;;8.20;99.90;;;;;;5055809;28;20169;-89
2022/02/06 07:08:46;;;;;;;7.63;2.80;;;8.30;99.90;;;;;;5056007;28;20185;-88
2022/02/06 07:11:14;;;;;;;7.10;2.60;;;8.30;99.90;;;;;;5041412;28;20235;-89
2022/02/06 07:13:41;;;;;;;5.03;3.17;;;8.30;99.90;;;;;;5041236;28;20185;-89
2022/02/06 07:16:10;;;;;;;4.47;2.63;;;8.30;99.90;;;;;;5041075;28;20239;-89
2022/02/06 07:18:40;;;;;;;7.63;3.17;;;8.40;99.90;;;;;;5040428;28;20185;-89
2022/02/06 07:21:10;;;;;;;7.40;2.97;;;8.40;99.90;;;;;;5036009;28;20189;-89
2022/02/06 07:23:41;;;;;;;10.77;2.63;;;8.40;99.90;;;;;;5022360;28;20205;-89
2022/02/06 07:26:18;;;;;;;5.80;2.50;;;8.50;99.90;;;;;;5024312;28;20166;-87
2022/02/06 07:28:48;;;;;;;5.33;2.30;;;8.40;99.90;;;;;;5029727;28;20166;-89
2022/02/06 07:31:14;;;;;;;7.73;2.60;;;8.40;99.90;;;;;;5051599;28;20209;-89
2022/02/06 07:33:42;;;;;;;6.03;2.43;;;8.40;99.90;;;;;;5031956;28;20248;-87
2022/02/06 07:36:09;;;;;;;5.70;2.40;;;8.50;99.90;;;;;;5031341;28;20225;-88
2022/02/06 07:38:34;;;;;;;8.73;1.87;;;8.40;99.90;;;;;;5032605;28;20178;-87
2022/02/06 07:41:03;;;;;;;5.37;2.47;;;8.40;99.90;;;;;;5052512;28;20656;-89
2022/02/06 07:43:48;;;;;;;4.83;2.10;;;8.50;99.90;;;;;;5052532;28;20215;-87
2022/02/06 07:46:18;;;;;;;4.27;2.10;;;8.40;99.90;;;;;;5036190;28;20204;-90
2022/02/06 07:48:46;;;;;;;7.13;2.37;;;8.40;99.90;;;;;;5029776;28;20174;-90
2022/02/06 07:51:14;;;;;;;8.00;2.17;;;8.50;99.90;;;;;;5026792;28;20528;-88
2022/02/06 07:53:40;;;;;;;5.30;2.57;;;8.50;99.90;;;;;;5027650;28;20319;-92
2022/02/06 07:56:13;;;;;;;6.47;2.33;;;8.50;99.90;;;;;;5026819;28;20214;-88
2022/02/06 07:58:40;;;;;;;5.10;2.10;;;8.50;99.90;;;;;;5021870;28;20208;-88
2022/02/06 08:01:06;;;;;;;5.07;1.90;;;8.40;99.90;;;;;;5038622;28;20188;-89
2022/02/06 08:03:32;;;;;;;5.10;2.10;;;8.40;99.90;;;;;;5025012;28;20176;-89
2022/02/06 08:06:06;;;;;;;4.77;2.13;;;8.40;99.90;;;;;;5029389;28;20273;-88
2022/02/06 08:08:32;;;;;;;7.47;2.23;;;8.50;99.90;;;;;;5034137;28;20158;-89
2022/02/06 08:11:01;;;;;;;5.40;2.30;;;8.50;99.90;;;;;;5032382;28;20177;-88
2022/02/06 08:14:48;;;;;;;4.07;2.03;;;8.70;99.90;;;;;;5034807;28;20257;-88
2022/02/06 08:16:14;;;;;;;4.03;2.37;;;8.60;99.90;;;;;;5021890;28;20316;-88
2022/02/06 08:18:41;;;;;;;7.47;2.50;;;8.60;99.90;;;;;;5031801;28;20204;-91
2022/02/06 08:21:10;;;;;;;6.10;2.23;;;8.70;99.90;;;;;;5030157;28;20259;-89
2022/02/06 08:23:35;;;;;;;5.23;2.67;;;8.60;99.90;;;;;;5036023;28;20216;-89
2022/02/06 08:26:05;;;;;;;5.20;2.00;;;8.60;99.90;;;;;;5035933;28;20186;-89
2022/02/06 08:28:33;;;;;;;4.80;2.13;;;8.60;99.90;;;;;;5053336;28;20186;-89
2022/02/06 08:31:02;;;;;;;6.50;2.20;;;8.60;99.90;;;;;;5058843;28;20225;-90
2022/02/06 08:33:30;;;;;;;5.17;2.60;;;8.60;99.90;;;;;;5044090;28;20169;-88
2022/02/06 08:35:59;;;;;;;5.73;2.00;;;8.60;99.90;;;;;;5044065;28;20213;-88
2022/02/06 08:38:28;;;;;;;5.67;2.10;;;8.60;99.90;;;;;;5044093;28;20177;-87
2022/02/06 08:41:01;;;;;;;7.40;2.43;;;8.60;99.90;;;;;;5044031;28;20166;-89
2022/02/06 08:43:39;;;;;;;7.20;2.43;;;8.60;99.90;;;;;;5043862;28;20162;-90
2022/02/06 08:46:20;;;;;;;6.40;2.60;;;8.70;99.90;;;;;;5028882;28;20241;-89
2022/02/06 08:48:48;;;;;;;5.27;2.40;;;8.60;99.90;;;;;;5025523;28;20241;-89
2022/02/06 08:51:15;;;;;;;5.23;1.90;;;8.50;99.90;;;;;;5043277;28;20169;-91
2022/02/06 08:53:41;;;;;;;4.03;1.70;;;8.60;99.90;;;;;;5025366;28;20166;-90
2022/02/06 08:56:08;;;;;;;5.47;1.80;;;8.50;99.90;;;;;;5027385;28;20197;-90
2022/02/06 08:58:35;;;;;;;7.30;2.00;;;8.60;99.90;;;;;;5049850;28;20217;-90
2022/02/06 09:01:01;;;;;;;5.87;1.60;;;8.80;99.90;;;;;;5039477;28;20173;-90
2022/02/06 09:03:27;;;;;;;7.00;2.13;;;8.60;99.90;;;;;;5043369;28;20185;-90
2022/02/06 09:05:58;;;;;;;3.40;2.00;;;8.60;99.90;;;;;;5043168;28;20169;-89
2022/02/06 09:08:28;;;;;;;5.47;2.23;;;8.60;99.90;;;;;;5062678;28;20181;-90
2022/02/06 09:10:57;;;;;;;5.97;1.90;;;8.60;99.90;;;;;;5018398;28;20170;-89
2022/02/06 09:13:26;;;;;;;4.60;1.50;;;8.60;99.90;;;;;;5027229;28;20182;-91
2022/02/06 09:15:52;;;;;;;6.07;1.67;;;8.70;99.90;;;;;;5007261;28;20240;-89
2022/02/06 09:18:27;;;;;;;4.40;2.00;;;8.80;99.90;;;;;;5007511;28;20178;-90
2022/02/06 09:20:55;;;;;;;4.77;2.10;;;8.90;99.90;;;;;;5005561;28;20170;-88
2022/02/06 09:23:22;;;;;;;4.37;1.60;;;8.70;99.90;;;;;;5006889;28;20167;-89
2022/02/06 09:25:48;;;;;;;2.60;1.57;;;8.70;99.90;;;;;;5010111;28;20186;-90
2022/02/06 09:28:13;;;;;;;3.33;1.53;;;8.90;99.90;;;;;;4996547;28;20171;-90
2022/02/06 09:30:40;;;;;;;3.93;1.37;;;8.70;99.90;;;;;;5032269;28;20205;-89
2022/02/06 09:35:33;;;;;;;4.33;2.03;;;8.70;99.90;;;;;;5039100;28;20214;-89
2022/02/06 09:37:59;;;;;;;3.73;1.40;;;8.70;99.90;;;;;;5020025;28;20206;-89
2022/02/06 09:40:27;;;;;;;2.50;1.40;;;8.70;99.90;;;;;;5038492;28;20179;-90
2022/02/06 09:42:58;;;;;;;4.00;1.83;;;8.80;99.90;;;;;;5037105;28;20173;-86
2022/02/06 09:45:28;;;;;;;4.63;1.90;;;8.80;99.90;;;;;;5071587;28;20225;-87
2022/02/06 09:47:59;;;;;;;2.67;1.43;;;8.70;99.90;;;;;;5049068;28;20200;-88
2022/02/06 09:50:24;;;;;;;4.47;1.50;;;8.80;99.90;;;;;;5027179;28;20186;-88
2022/02/06 09:52:54;;;;;;;3.07;1.40;;;8.70;99.90;;;;;;5047577;28;20178;-89
2022/02/06 09:55:28;;;;;;;3.87;2.27;;;8.90;99.90;;;;;;5045120;28;20205;-87
2022/02/06 09:58:59;;;;;;;3.97;1.80;;;8.80;99.90;;;;;;5045105;28;20188;-88
2022/02/06 10:00:51;;;;;;;2.90;1.43;;;8.80;99.90;;;;;;5038085;28;20166;-88
2022/02/06 10:03:22;;;;;;;5.00;2.10;;;8.90;99.90;;;;;;5028117;28;20178;-89
2022/02/06 10:06:17;;;;;;;4.63;1.90;;;9.00;99.90;;;;;;5028919;28;20371;-89
2022/02/06 10:08:46;;;;;;;5.27;1.70;;;8.90;99.90;;;;;;5030539;28;20197;-89
2022/02/06 10:11:15;;;;;;;5.40;1.97;;;8.90;99.90;;;;;;5035522;28;20629;-89
2022/02/06 10:14:02;;;;;;;4.37;1.40;;;8.90;99.90;;;;;;5025312;28;20220;-91
2022/02/06 10:16:28;;;;;;;4.80;2.20;;;8.90;99.90;;;;;;5024246;28;20213;-87
2022/02/06 10:18:57;;;;;;;4.07;2.13;;;8.90;99.90;;;;;;5024479;28;20166;-88
2022/02/06 10:21:34;;;;;;;3.13;1.53;;;8.90;99.90;;;;;;5041864;28;20319;-88
2022/02/06 10:24:17;;;;;;;3.17;1.40;;;8.90;99.90;;;;;;5026840;28;20207;-88
2022/02/06 10:31:43;;;;;;;4.53;1.33;;;9.00;99.90;;;;;;5041403;28;20166;-88
2022/02/06 10:34:32;;;;;;;4.37;1.73;;;9.00;99.90;;;;;;5029888;28;20185;-89
2022/02/06 10:37:50;;;;;;;3.23;1.70;;;9.00;99.90;;;;;;5054127;28;20186;-89
2022/02/06 10:40:17;;;;;;;4.17;1.70;;;9.10;99.90;;;;;;5049802;28;20601;-90
2022/02/06 10:42:50;;;;;;;2.77;1.63;;;9.00;99.90;;;;;;5030295;28;20185;-89
2022/02/06 10:45:29;;;;;;;4.50;1.57;;;9.00;99.90;;;;;;5045059;28;20177;-90
2022/02/06 10:47:58;;;;;;;6.73;1.60;;;9.00;99.90;;;;;;5025781;28;20245;-88
2022/02/06 10:50:27;;;;;;;3.17;1.90;;;9.10;99.90;;;;;;5069035;22;20170;-88
2022/02/06 10:53:06;;;;;;;5.23;2.03;;;9.00;99.90;;;;;;4955947;28;20262;-91
2022/02/06 10:56:14;;;;;;;4.90;1.60;;;9.00;99.90;;;;;;4999968;28;20270;-89
2022/02/06 10:58:57;;;;;;;3.87;1.70;;;9.00;99.90;;;;;;5001293;28;20173;-88
2022/02/06 11:01:25;;;;;;;3.30;1.30;;;9.10;99.90;;;;;;5016561;28;20183;-90
2022/02/06 11:04:29;;;;;;;3.03;1.33;;;9.10;99.90;;;;;;5001205;28;20183;-88
2022/02/06 11:07:15;;;;;;;2.03;0.83;;;9.20;99.90;;;;;;5001295;28;20155;-89
2022/02/06 11:09:42;;;;;;;2.70;1.40;;;9.20;99.90;;;;;;5001040;28;20163;-88
2022/02/06 11:12:15;;;;;;;1.33;1.00;;;9.30;99.90;;;;;;4977539;28;20187;-89
2022/02/06 11:14:47;;;;;;;3.17;1.20;;;9.30;99.90;;;;;;4992274;28;20239;-89
2022/02/06 11:17:33;;;;;;;1.80;0.93;;;9.30;99.90;;;;;;5010583;28;20171;-89
2022/02/06 11:20:04;;;;;;;1.90;1.00;;;9.40;99.90;;;;;;4978840;28;20242;-91
2022/02/06 11:22:32;;;;;;;2.17;1.17;;;9.40;99.90;;;;;;4990376;28;20179;-89
2022/02/06 11:25:05;;;;;;;6.40;1.37;;;9.40;99.90;;;;;;5001361;28;20214;-88
2022/02/06 11:27:33;;;;;;;4.13;1.63;;;9.50;99.90;;;;;;5000035;28;20167;-89
2022/02/06 11:30:04;;;;;;;5.23;2.10;;;9.60;99.90;;;;;;5000959;28;20155;-91
2022/02/06 11:32:31;;;;;;;4.77;1.67;;;9.80;99.90;;;;;;4985593;28;20155;-86
2022/02/06 11:35:03;;;;;;;6.23;1.77;;;9.90;99.90;;;;;;5000738;28;20211;-89
2022/02/06 11:43:54;;;;;;;5.70;2.00;;;10.40;99.90;;;;;;5018124;28;20147;-90
2022/02/06 11:46:28;;;;;;;7.47;2.30;;;10.60;99.90;;;;;;5001785;28;20178;-88
2022/02/06 11:49:08;;;;;;;6.93;1.77;;;10.60;99.90;;;;;;5001561;28;20158;-88
2022/02/06 11:51:36;;;;;;;6.17;1.83;;;10.70;99.90;;;;;;4994217;28;20274;-91
2022/02/06 11:57:27;;;;;;;4.03;1.17;;;10.70;99.90;;;;;;5010316;28;20272;-92
2022/02/06 12:00:08;;;;;;;3.53;1.10;;;10.50;99.90;;;;;;5000857;28;20163;-92
2022/02/06 12:02:37;;;;;;;3.63;1.13;;;10.40;99.90;;;;;;5000716;28;20218;-88
2022/02/06 12:05:13;;;;;;;3.37;1.20;;;10.20;99.90;;;;;;4998053;28;20195;-89
2022/02/06 12:08:11;;;;;;;3.13;1.30;;;10.20;99.90;;;;;;5000603;28;20181;-89
2022/02/06 12:10:57;;;;;;;3.33;1.10;;;9.90;99.90;;;;;;4994512;28;20179;-91
2022/02/06 12:16:49;;;;;;;1.83;0.90;;;9.60;99.90;;;;;;5010399;28;20298;-92
2022/02/06 12:19:34;;;;;;;1.97;0.63;;;9.60;99.90;;;;;;4992639;28;20177;-90
2022/02/06 12:22:30;;;;;;;6.40;0.97;;;9.50;99.90;;;;;;4989935;28;20210;-90
2022/02/06 12:25:20;;;;;;;1.57;0.80;;;9.40;99.90;;;;;;4996764;28;20214;-91
2022/02/06 12:27:52;;;;;;;3.00;1.17;;;9.40;99.90;;;;;;5004594;28;20303;-90
2022/02/06 12:30:30;;;;;;;1.80;0.70;;;9.50;99.90;;;;;;4987605;28;20189;-89
2022/02/06 12:33:19;;;;;;;2.67;0.90;;;9.60;99.90;;;;;;5009664;28;20187;-90
2022/02/06 12:38:29;;;;;;;2.83;0.83;;;9.40;99.90;;;;;;5005374;28;20178;-90
2022/02/06 12:40:55;;;;;;;1.47;0.67;;;9.40;99.90;;;;;;4988308;28;20274;-90
2022/02/06 12:43:28;;;;;;;3.17;1.10;;;9.30;99.90;;;;;;4991900;28;20190;-91
2022/02/06 12:45:55;;;;;;;2.10;0.80;;;9.20;99.90;;;;;;4996013;28;20179;-90
2022/02/06 12:48:23;;;;;;;1.97;1.00;;;9.20;99.90;;;;;;5000250;28;20186;-91
2022/02/06 12:50:49;;;;;;;2.00;0.80;;;9.10;99.90;;;;;;5001640;28;20182;-90
2022/02/06 12:53:19;;;;;;;1.83;0.50;;;9.10;99.90;;;;;;5014781;28;20663;-91
2022/02/06 12:55:48;;;;;;;1.37;0.90;;;9.00;99.90;;;;;;4993150;28;20308;-90
2022/02/06 12:58:18;;;;;;;1.93;0.70;;;8.80;99.90;;;;;;4984606;28;20171;-91
2022/02/06 13:00:49;;;;;;;0.93;0.57;;;8.70;99.90;;;;;;4990647;28;20643;-92
2022/02/06 13:03:27;;;;;;;2.83;0.80;;;8.70;99.90;;;;;;4989874;28;20482;-88
2022/02/06 13:06:07;;;;;;;3.53;1.00;;;8.70;99.90;;;;;;4998627;28;20155;-88
2022/02/06 13:08:37;;;;;;;1.17;0.50;;;8.60;99.90;;;;;;4999986;28;20167;-88
2022/02/06 13:11:11;;;;;;;1.43;0.73;;;8.60;99.90;;;;;;4991733;28;20186;-90
2022/02/06 13:19:08;;;;;;;2.20;0.80;;;8.70;99.90;;;;;;5035860;28;20201;-87
2022/02/06 13:21:56;;;;;;;3.53;1.00;;;8.70;99.90;;;;;;4996116;28;20243;-90
2022/02/06 13:25:07;;;;;;;5.03;1.03;;;8.90;99.90;;;;;;4994714;28;20199;-91
2022/02/06 13:30:34;;;;;;;2.67;1.30;;;9.00;99.90;;;;;;4998242;28;20188;-89
2022/02/06 13:33:14;;;;;;;3.93;1.20;;;9.20;99.90;;;;;;5001450;28;20265;-90
2022/02/06 13:36:14;;;;;;;4.87;1.63;;;9.20;99.90;;;;;;4992996;28;20198;-90
2022/02/06 13:38:34;;;;;;;3.27;1.80;;;9.20;99.90;;;;;;4995958;28;20195;-91
2022/02/06 13:41:01;;;;;;;7.77;1.93;;;9.20;99.90;;;;;;4985381;28;20171;-92
2022/02/06 13:43:38;;;;;;;5.97;1.83;;;9.30;99.90;;;;;;4984628;28;20262;-89
2022/02/06 13:46:23;;;;;;;5.13;1.80;;;9.30;99.90;;;;;;4981965;28;20264;-86
2022/02/06 13:48:49;;;;;;;6.33;2.20;;;9.40;99.90;;;;;;4983060;28;20258;-89
2022/02/06 13:51:16;;;;;;;6.10;1.90;;;9.40;99.90;;;;;;4965962;28;20175;-87
2022/02/06 13:54:04;;;;;;;6.13;2.00;;;9.50;99.90;;;;;;4982420;28;20194;-89
2022/02/06 13:56:30;;;;;;;8.57;3.07;;;9.60;99.90;;;;;;4983107;28;20221;-88
2022/02/06 13:59:02;;;;;;;9.67;2.37;;;9.70;99.90;;;;;;4983394;28;20170;-89
2022/02/06 14:01:55;;;;;;;6.60;2.43;;;9.80;99.90;;;;;;4982918;28;20183;-88
2022/02/06 14:04:25;;;;;;;9.50;2.37;;;10.00;99.90;;;;;;4983902;28;20175;-89
2022/02/06 14:06:59;;;;;;;8.27;2.50;;;10.10;99.90;;;;;;4984303;28;20175;-88
2022/02/06 14:09:33;;;;;;;7.77;2.00;;;10.50;99.90;;;;;;5003924;28;20202;-88
2022/02/06 14:12:25;;;;;;;8.17;2.37;;;10.60;99.20;;;;;;4988290;28;20171;-88
2022/02/06 14:14:53;;;;;;;6.57;1.97;;;11.00;95.80;;;;;;4989867;28;20210;-88
2022/02/06 14:17:24;;;;;;;4.87;1.83;;;11.00;93.10;;;;;;5007513;28;20178;-86
2022/02/06 14:19:51;;;;;;;6.03;2.17;;;11.00;90.40;;;;;;5000283;28;20159;-86
2022/02/06 14:22:35;;;;;;;6.87;2.10;;;11.00;91.00;;;;;;4992082;28;20164;-87
2022/02/06 14:25:03;;;;;;;6.13;2.10;;;11.00;91.40;;;;;;4993238;28;20195;-88
2022/02/06 14:27:35;;;;;;;7.93;2.30;;;11.00;91.10;;;;;;4999365;28;20279;-87
2022/02/06 14:30:12;;;;;;;7.97;2.40;;;11.00;90.30;;;;;;4985303;28;20167;-92
2022/02/06 14:33:08;;;;;;;7.43;1.90;;;11.10;89.30;;;;;;4984350;28;20275;-90
2022/02/06 14:35:57;;;;;;;6.87;2.63;;;11.00;89.20;;;;;;4987493;28;20280;-90
2022/02/06 14:38:32;;;;;;;7.77;2.00;;;11.00;86.40;;;;;;4981661;28;20164;-92
2022/02/06 14:41:23;;;;;;;9.40;2.93;;;11.00;88.60;;;;;;4982398;28;20175;-89
2022/02/06 14:44:00;;;;;;;5.67;2.20;;;10.90;84.30;;;;;;4985478;28;20179;-89
2022/02/06 14:46:31;;;;;;;6.03;2.50;;;10.90;86.20;;;;;;4986241;28;20170;-88
2022/02/06 14:49:17;;;;;;;7.60;2.40;;;10.90;85.80;;;;;;5007218;28;20190;-89
2022/02/06 14:51:43;;;;;;;13.50;3.23;;;10.90;88.70;;;;;;4994353;28;20286;-90
2022/02/06 14:54:20;;;;;;;6.67;2.80;;;10.90;88.70;;;;;;4980921;28;20178;-86
2022/02/06 14:56:48;;;;;;;7.37;2.40;;;10.90;89.20;;;;;;4998899;28;20203;-89
2022/02/06 14:59:16;;;;;;;5.90;2.10;;;10.90;86.40;;;;;;4976746;28;20198;-85
2022/02/06 15:01:44;;;;;;;9.93;2.63;;;10.80;85.50;;;;;;4977338;28;20183;-88
2022/02/06 15:04:10;;;;;;;6.27;2.23;;;10.90;84.80;;;;;;4992040;28;20194;-85
2022/02/06 15:06:36;;;;;;;8.83;2.60;;;10.80;83.60;;;;;;4975994;28;20183;-88
2022/02/06 15:09:04;;;;;;;5.27;2.50;;;10.90;81.50;;;;;;4974435;28;20167;-87
2022/02/06 15:11:29;;;;;;;5.93;2.20;;;10.90;82.00;;;;;;4969413;28;20179;-88
2022/02/06 15:14:03;;;;;;;7.30;2.57;;;10.90;82.10;;;;;;4968297;28;20164;-90
2022/02/06 15:16:32;;;;;;;7.63;2.03;;;11.10;82.30;;;;;;4964881;28;20667;-86
2022/02/06 15:19:01;;;;;;;8.43;2.13;;;11.00;81.80;;;;;;4966523;28;20258;-91
2022/02/06 15:21:27;;;;;;;6.50;2.30;;;11.00;83.20;;;;;;4982628;28;20198;-88
2022/02/06 15:23:54;;;;;;;7.00;2.27;;;11.00;82.50;;;;;;4982567;28;20190;-89
2022/02/06 15:26:23;;;;;;;6.47;1.60;;;10.90;82.30;;;;;;4986006;28;20171;-88
2022/02/06 15:28:51;;;;;;;7.03;2.03;;;11.00;82.70;;;;;;4972429;28;20246;-92
2022/02/06 15:31:20;;;;;;;5.50;1.73;;;11.00;84.30;;;;;;4971892;28;20187;-90
2022/02/06 15:33:51;;;;;;;10.83;2.17;;;10.90;85.90;;;;;;4983458;28;20280;-90
2022/02/06 15:36:19;;;;;;;7.03;2.00;;;10.90;87.00;;;;;;4983012;28;20362;-92
2022/02/06 15:38:47;;;;;;;6.27;2.03;;;10.90;87.90;;;;;;4984741;28;20242;-89
2022/02/06 15:41:14;;;;;;;7.00;1.70;;;10.90;89.70;;;;;;4972133;28;20203;-90
2022/02/06 15:43:41;;;;;;;10.93;2.77;;;10.90;90.30;;;;;;4986949;28;20178;-88
2022/02/06 15:46:09;;;;;;;12.67;2.30;;;10.80;90.60;;;;;;4985541;28;20179;-90
2022/02/06 15:48:35;;;;;;;13.63;2.20;;;10.90;90.60;;;;;;4991919;28;20167;-87
2022/02/06 15:51:06;;;;;;;9.20;2.63;;;10.90;90.80;;;;;;4998351;28;20165;-89
2022/02/06 15:53:32;;;;;;;7.80;2.30;;;10.90;90.90;;;;;;4997263;28;20194;-88
2022/02/06 15:55:59;;;;;;;7.83;2.60;;;11.00;89.60;;;;;;5000584;28;20242;-87